Paradise Island — WDJ2048 — position and weather

sailwx.info

Track history (hours):
 
Tides and Currents Weather Stations Pressure Air Temp Water Temp Dewpoint Dewpoint Depression Visibility Wind Speed Wind Dir Waves Ship Positions

Paradise Island

Owner: Nautical Solutions, Cut Off, LA. More information available from US FCC via Universal Licensing System and Coast Guard Vessel Documentation Center.

Last reported at 2018-May-12 22:31 UTC. Time now 2018-Jun-23 10:13 UTC.
Position N 10°52' W 061°19'.
Warning: this ship's position is 41 days out of date.

Length 95 m; draft 5.6 m.

Type: Wing in ground effect craft. MMSI: 367754760.

Date/timePositionNaut miles runAvg speedWind from/ knotsBaromVisibWave heightAir tempDewpointWater temp
2018-May-12 22:31N 10°52' W 061°19'0 7.4
2018-May-12 22:29N 10°52' W 061°19'7 7.8
2018-May-12 21:31N 10°51' W 061°27'1 8.2
2018-May-12 21:24N 10°50' W 061°28'4 7.9
2018-May-12 20:50N 10°49' W 061°32'3 7.9
2018-May-12 20:30N 10°48' W 061°35'4 8.3
2018-May-12 20:00N 10°47' W 061°39'4 8.0
2018-May-12 19:30N 10°45' W 061°42'3 6.0
2018-May-12 19:00N 10°42' W 061°42'4 7.9
2018-May-12 18:30N 10°38' W 061°40'3 5.4
2018-May-12 18:00N 10°38' W 061°37'0 0.2
2018-May-12 17:28N 10°38' W 061°37'0 0.1
2018-May-12 16:58N 10°38' W 061°37'0 0.0
2018-May-12 16:30N 10°38' W 061°37'0 0.6
2018-May-12 16:00N 10°39' W 061°37'0 0.8
2018-May-12 15:30N 10°39' W 061°38'0 0.0
2018-May-12 14:59N 10°39' W 061°38'0 0.1
2018-May-12 14:30N 10°39' W 061°38'0 0.2
2018-May-12 13:58N 10°39' W 061°38'0 0.6
2018-May-12 13:28N 10°39' W 061°38'1 1.0
2018-May-12 12:55N 10°40' W 061°38'0 0.0
2018-May-12 12:28N 10°40' W 061°38'0 0.0
2018-May-12 11:58N 10°40' W 061°38'0 0.0
2018-May-12 11:28N 10°40' W 061°38'0 0.0
2018-May-12 10:58N 10°40' W 061°38'0 0.0
2018-May-12 10:28N 10°40' W 061°38'0 0.0
2018-May-12 09:58N 10°40' W 061°38'0 0.0
2018-May-12 09:28N 10°40' W 061°38'0 0.0
2018-May-12 08:58N 10°40' W 061°38'0 0.0
2018-May-12 08:28N 10°40' W 061°38'0 0.0
2018-May-12 07:58N 10°40' W 061°38'0 0.0
2018-May-12 07:28N 10°40' W 061°38'0 0.0
2018-May-12 06:58N 10°40' W 061°38'0 0.0
2018-May-12 06:25N 10°40' W 061°38'0 0.0
2018-May-12 05:55N 10°40' W 061°38'0 0.0
2018-May-12 05:28N 10°40' W 061°38'0 0.0
2018-May-12 04:58N 10°40' W 061°38'0 0.0
2018-May-12 04:25N 10°40' W 061°38'0 0.0
2018-May-12 03:58N 10°40' W 061°38'0 0.0
2018-May-12 03:28N 10°40' W 061°38'0 0.0
2018-May-12 02:58N 10°40' W 061°38'0 0.0
2018-May-12 02:28N 10°40' W 061°38'0 0.0
2018-May-12 01:58N 10°40' W 061°38'0 0.0
2018-May-12 01:28N 10°40' W 061°38'0 0.0
2018-May-12 00:58N 10°40' W 061°38'0 0.0
2018-May-12 00:28N 10°40' W 061°38'0 0.0
2018-May-11 23:58N 10°40' W 061°38'0 0.0
2018-May-11 23:28N 10°40' W 061°38'0 0.0
2018-May-11 23:01N 10°40' W 061°38'0 0.0
2018-May-11 22:31N 10°40' W 061°38'0 0.0
2018-May-11 21:59N 10°40' W 061°38'0 0.0
2018-May-11 21:31N 10°40' W 061°38'0 0.0
2018-May-11 21:01N 10°40' W 061°38'0 0.0
2018-May-11 20:31N 10°40' W 061°38'0 0.0
2018-May-11 19:59N 10°40' W 061°38'0 0.0
2018-May-11 19:28N 10°40' W 061°38'0 0.0
2018-May-11 18:59N 10°40' W 061°38'0 0.0
2018-May-11 18:30N 10°40' W 061°38'0 0.0
2018-May-11 18:01N 10°40' W 061°38'0 0.0
2018-May-11 17:29N 10°40' W 061°38'0 0.0
2018-May-11 17:00N 10°40' W 061°38'0 0.0
2018-May-11 16:31N 10°40' W 061°38'0 0.0
2018-May-11 16:00N 10°40' W 061°38'0 0.0
2018-May-11 15:30N 10°40' W 061°38'0 0.0
2018-May-11 15:00N 10°40' W 061°38'0 0.0
2018-May-11 14:30N 10°40' W 061°38'0 0.0
2018-May-11 14:01N 10°40' W 061°38'0 0.0
2018-May-11 13:30N 10°40' W 061°38'0 0.0
2018-May-11 13:01N 10°40' W 061°38'0 0.0
2018-May-11 12:30N 10°40' W 061°38'0 0.0
2018-May-11 11:59N 10°40' W 061°38'0 0.0
2018-May-11 11:30N 10°40' W 061°38'0 0.0
2018-May-11 11:00N 10°40' W 061°38'0 0.0
2018-May-11 10:31N 10°40' W 061°38'0 0.0
2018-May-11 10:00N 10°40' W 061°38'0 0.0
2018-May-11 09:30N 10°40' W 061°38'0 0.0
2018-May-11 09:01N 10°40' W 061°38'0 0.0
2018-May-11 08:31N 10°40' W 061°38'0 0.0
2018-May-11 08:01N 10°40' W 061°38'0 0.0
2018-May-11 07:31N 10°40' W 061°38'0 0.0
2018-May-11 07:01N 10°40' W 061°38'0 0.0
2018-May-11 06:27N 10°40' W 061°38'0 0.0
2018-May-11 06:01N 10°40' W 061°38'0 0.0
2018-May-11 05:30N 10°40' W 061°38'0 0.0
2018-May-11 05:00N 10°40' W 061°38'0 0.0
2018-May-11 04:29N 10°40' W 061°38'0 0.0
2018-May-11 04:01N 10°40' W 061°38'0 0.0
2018-May-11 03:26N 10°40' W 061°38'0 0.0
2018-May-11 02:59N 10°40' W 061°38'0 0.0
2018-May-11 02:31N 10°40' W 061°38'0 0.0
2018-May-11 02:00N 10°40' W 061°38'0 0.0
2018-May-11 01:31N 10°40' W 061°38'0 0.0
2018-May-11 01:01N 10°40' W 061°38'0 0.0
2018-May-11 00:30N 10°40' W 061°38'0 0.0
2018-May-11 00:01N 10°40' W 061°38'0 0.3
2018-May-10 23:31N 10°40' W 061°38'1 2.0
2018-May-10 23:01N 10°41' W 061°38'0 0.0
2018-May-10 22:30N 10°41' W 061°38'0 0.0
2018-May-10 21:58N 10°41' W 061°38'0 0.0
2018-May-10 21:30N 10°41' W 061°38'0 0.0
2018-May-10 21:00N 10°41' W 061°38'0 0.0
2018-May-10 20:24N 10°41' W 061°38'0 0.0
2018-May-10 19:57N 10°41' W 061°38'0 0.0
2018-May-10 19:24N 10°41' W 061°38'0 0.0
2018-May-10 18:54N 10°41' W 061°38'0 0.0
2018-May-10 18:06N 10°41' W 061°38'0 0.1
2018-May-10 18:00N 10°41' W 061°38'0 0.0
2018-May-10 17:30N 10°41' W 061°38'0 0.0
2018-May-10 16:57N 10°41' W 061°38'0 0.0
2018-May-10 16:24N 10°41' W 061°38'0 0.0
2018-May-10 15:27N 10°41' W 061°38'0 0.0
2018-May-10 15:00N 10°41' W 061°38'0 0.0
2018-May-10 14:30N 10°41' W 061°38'0 0.0
2018-May-10 13:54N 10°41' W 061°38'0 0.0
2018-May-10 13:30N 10°41' W 061°38'0 0.0
2018-May-10 13:00N 10°41' W 061°38'0 0.1
2018-May-10 12:30N 10°41' W 061°38'1 2.3
2018-May-10 12:00N 10°40' W 061°38'1 1.3
2018-May-10 11:29N 10°39' W 061°38'0 0.0
2018-May-10 10:59N 10°39' W 061°38'0 0.0
2018-May-10 10:29N 10°39' W 061°38'0 0.0
2018-May-10 09:59N 10°39' W 061°38'0 0.0
2018-May-10 09:29N 10°39' W 061°38'0 0.0
2018-May-10 08:59N 10°39' W 061°38'0 0.0
2018-May-10 08:29N 10°39' W 061°38'0 0.0
2018-May-10 07:59N 10°39' W 061°38'0 0.0
2018-May-10 07:29N 10°39' W 061°38'0 0.0
2018-May-10 06:59N 10°39' W 061°38'0 0.0
2018-May-10 06:29N 10°39' W 061°38'0 0.0
2018-May-10 05:59N 10°39' W 061°38'0 0.0
2018-May-10 05:29N 10°39' W 061°38'0 0.0
2018-May-10 04:59N 10°39' W 061°38'0 0.0
2018-May-10 04:29N 10°39' W 061°38'0 0.0
2018-May-10 03:59N 10°39' W 061°38'0 0.0
2018-May-10 03:29N 10°39' W 061°38'0 0.0
2018-May-10 02:59N 10°39' W 061°38'0 0.0
2018-May-10 02:29N 10°39' W 061°38'0 0.0
2018-May-10 01:59N 10°39' W 061°38'0 0.0
2018-May-10 01:29N 10°39' W 061°38'0 0.0
2018-May-10 00:59N 10°39' W 061°38'0 0.0
2018-May-10 00:29N 10°39' W 061°38'0 0.0
2018-May-10 00:00N 10°39' W 061°38'0 0.0
2018-May-09 23:30N 10°39' W 061°38'0 0.0
2018-May-09 23:00N 10°39' W 061°38'0 0.5
2018-May-09 22:30N 10°39' W 061°38'1 2.7
2018-May-09 22:00N 10°40' W 061°38'0 0.4
2018-May-09 21:30N 10°41' W 061°38'0 0.0
2018-May-09 21:00N 10°41' W 061°38'0 0.0
2018-May-09 20:30N 10°41' W 061°38'0 0.0
2018-May-09 20:00N 10°41' W 061°38'0 0.0
2018-May-09 19:30N 10°41' W 061°38'0 0.0
2018-May-09 19:00N 10°41' W 061°38'0 0.0
2018-May-09 18:30N 10°41' W 061°38'0 0.0
2018-May-09 18:00N 10°41' W 061°38'0 0.0
2018-May-09 17:30N 10°41' W 061°38'0 0.0
2018-May-09 17:00N 10°41' W 061°38'0 0.0
2018-May-09 16:30N 10°41' W 061°38'0 0.0
2018-May-09 16:00N 10°41' W 061°38'0 0.0
2018-May-09 15:30N 10°41' W 061°38'0 0.0
2018-May-09 15:00N 10°41' W 061°38'0 0.0
2018-May-09 14:30N 10°41' W 061°38'0 0.0
2018-May-09 14:00N 10°41' W 061°38'0 0.0
2018-May-09 13:30N 10°41' W 061°38'0 0.0
2018-May-09 13:00N 10°41' W 061°38'0 0.0
2018-May-09 12:30N 10°41' W 061°38'0 0.0
2018-May-09 12:00N 10°41' W 061°38'0 0.0
2018-May-09 11:30N 10°41' W 061°38'0 0.3
2018-May-09 11:00N 10°41' W 061°38'1 2.8
2018-May-09 10:30N 10°39' W 061°38'0 0.0
2018-May-09 10:00N 10°39' W 061°38'0 0.0
2018-May-09 09:30N 10°39' W 061°38'0 0.0
2018-May-09 09:00N 10°39' W 061°38'0 0.0
2018-May-09 08:30N 10°39' W 061°38'0 0.0
2018-May-09 08:00N 10°39' W 061°38'0 0.0
2018-May-09 07:30N 10°39' W 061°38'1 2.5
2018-May-09 07:00N 10°39' W 061°39'4 6.7
2018-May-09 06:28N 10°41' W 061°42'9 9.2
2018-May-09 05:29N 10°47' W 061°35'14 9.6
2018-May-09 04:00N 10°52' W 061°22'  
Track history (hours):
 
Tides and Currents Weather Stations Pressure Air Temp Water Temp Dewpoint Dewpoint Depression Visibility Wind Speed Wind Dir Waves Ship Positions

Paradise Island

Owner: Nautical Solutions, Cut Off, LA. More information available from US FCC via Universal Licensing System and Coast Guard Vessel Documentation Center.

Last reported at 2018-May-12 22:31 UTC. Time now 2018-Jun-23 10:13 UTC.
Position N 10°52' W 061°19'.
Warning: this ship's position is 41 days out of date.

Length 95 m; draft 5.6 m.

Type: Wing in ground effect craft. MMSI: 367754760.

Date/timePositionNaut miles runAvg speedWind from/ knotsBaromVisibWave heightAir tempDewpointWater temp
2018-May-12 22:31N 10°52' W 061°19'0 7.4
2018-May-12 22:29N 10°52' W 061°19'7 7.8
2018-May-12 21:31N 10°51' W 061°27'1 8.2
2018-May-12 21:24N 10°50' W 061°28'4 7.9
2018-May-12 20:50N 10°49' W 061°32'3 7.9
2018-May-12 20:30N 10°48' W 061°35'4 8.3
2018-May-12 20:00N 10°47' W 061°39'4 8.0
2018-May-12 19:30N 10°45' W 061°42'3 6.0
2018-May-12 19:00N 10°42' W 061°42'4 7.9
2018-May-12 18:30N 10°38' W 061°40'3 5.4
2018-May-12 18:00N 10°38' W 061°37'0 0.2
2018-May-12 17:28N 10°38' W 061°37'0 0.1
2018-May-12 16:58N 10°38' W 061°37'0 0.0
2018-May-12 16:30N 10°38' W 061°37'0 0.6
2018-May-12 16:00N 10°39' W 061°37'0 0.8
2018-May-12 15:30N 10°39' W 061°38'0 0.0
2018-May-12 14:59N 10°39' W 061°38'0 0.1
2018-May-12 14:30N 10°39' W 061°38'0 0.2
2018-May-12 13:58N 10°39' W 061°38'0 0.6
2018-May-12 13:28N 10°39' W 061°38'1 1.0
2018-May-12 12:55N 10°40' W 061°38'0 0.0
2018-May-12 12:28N 10°40' W 061°38'0 0.0
2018-May-12 11:58N 10°40' W 061°38'0 0.0
2018-May-12 11:28N 10°40' W 061°38'0 0.0
2018-May-12 10:58N 10°40' W 061°38'0 0.0
2018-May-12 10:28N 10°40' W 061°38'0 0.0
2018-May-12 09:58N 10°40' W 061°38'0 0.0
2018-May-12 09:28N 10°40' W 061°38'0 0.0
2018-May-12 08:58N 10°40' W 061°38'0 0.0
2018-May-12 08:28N 10°40' W 061°38'0 0.0
2018-May-12 07:58N 10°40' W 061°38'0 0.0
2018-May-12 07:28N 10°40' W 061°38'0 0.0
2018-May-12 06:58N 10°40' W 061°38'0 0.0
2018-May-12 06:25N 10°40' W 061°38'0 0.0
2018-May-12 05:55N 10°40' W 061°38'0 0.0
2018-May-12 05:28N 10°40' W 061°38'0 0.0
2018-May-12 04:58N 10°40' W 061°38'0 0.0
2018-May-12 04:25N 10°40' W 061°38'0 0.0
2018-May-12 03:58N 10°40' W 061°38'0 0.0
2018-May-12 03:28N 10°40' W 061°38'0 0.0
2018-May-12 02:58N 10°40' W 061°38'0 0.0
2018-May-12 02:28N 10°40' W 061°38'0 0.0
2018-May-12 01:58N 10°40' W 061°38'0 0.0
2018-May-12 01:28N 10°40' W 061°38'0 0.0
2018-May-12 00:58N 10°40' W 061°38'0 0.0
2018-May-12 00:28N 10°40' W 061°38'0 0.0
2018-May-11 23:58N 10°40' W 061°38'0 0.0
2018-May-11 23:28N 10°40' W 061°38'0 0.0
2018-May-11 23:01N 10°40' W 061°38'0 0.0
2018-May-11 22:31N 10°40' W 061°38'0 0.0
2018-May-11 21:59N 10°40' W 061°38'0 0.0
2018-May-11 21:31N 10°40' W 061°38'0 0.0
2018-May-11 21:01N 10°40' W 061°38'0 0.0
2018-May-11 20:31N 10°40' W 061°38'0 0.0
2018-May-11 19:59N 10°40' W 061°38'0 0.0
2018-May-11 19:28N 10°40' W 061°38'0 0.0
2018-May-11 18:59N 10°40' W 061°38'0 0.0
2018-May-11 18:30N 10°40' W 061°38'0 0.0
2018-May-11 18:01N 10°40' W 061°38'0 0.0
2018-May-11 17:29N 10°40' W 061°38'0 0.0
2018-May-11 17:00N 10°40' W 061°38'0 0.0
2018-May-11 16:31N 10°40' W 061°38'0 0.0
2018-May-11 16:00N 10°40' W 061°38'0 0.0
2018-May-11 15:30N 10°40' W 061°38'0 0.0
2018-May-11 15:00N 10°40' W 061°38'0 0.0
2018-May-11 14:30N 10°40' W 061°38'0 0.0
2018-May-11 14:01N 10°40' W 061°38'0 0.0
2018-May-11 13:30N 10°40' W 061°38'0 0.0
2018-May-11 13:01N 10°40' W 061°38'0 0.0
2018-May-11 12:30N 10°40' W 061°38'0 0.0
2018-May-11 11:59N 10°40' W 061°38'0 0.0
2018-May-11 11:30N 10°40' W 061°38'0 0.0
2018-May-11 11:00N 10°40' W 061°38'0 0.0
2018-May-11 10:31N 10°40' W 061°38'0 0.0
2018-May-11 10:00N 10°40' W 061°38'0 0.0
2018-May-11 09:30N 10°40' W 061°38'0 0.0
2018-May-11 09:01N 10°40' W 061°38'0 0.0
2018-May-11 08:31N 10°40' W 061°38'0 0.0
2018-May-11 08:01N 10°40' W 061°38'0 0.0
2018-May-11 07:31N 10°40' W 061°38'0 0.0
2018-May-11 07:01N 10°40' W 061°38'0 0.0
2018-May-11 06:27N 10°40' W 061°38'0 0.0
2018-May-11 06:01N 10°40' W 061°38'0 0.0
2018-May-11 05:30N 10°40' W 061°38'0 0.0
2018-May-11 05:00N 10°40' W 061°38'0 0.0
2018-May-11 04:29N 10°40' W 061°38'0 0.0
2018-May-11 04:01N 10°40' W 061°38'0 0.0
2018-May-11 03:26N 10°40' W 061°38'0 0.0
2018-May-11 02:59N 10°40' W 061°38'0 0.0
2018-May-11 02:31N 10°40' W 061°38'0 0.0
2018-May-11 02:00N 10°40' W 061°38'0 0.0
2018-May-11 01:31N 10°40' W 061°38'0 0.0
2018-May-11 01:01N 10°40' W 061°38'0 0.0
2018-May-11 00:30N 10°40' W 061°38'0 0.0
2018-May-11 00:01N 10°40' W 061°38'0 0.3
2018-May-10 23:31N 10°40' W 061°38'1 2.0
2018-May-10 23:01N 10°41' W 061°38'0 0.0
2018-May-10 22:30N 10°41' W 061°38'0 0.0
2018-May-10 21:58N 10°41' W 061°38'0 0.0
2018-May-10 21:30N 10°41' W 061°38'0 0.0
2018-May-10 21:00N 10°41' W 061°38'0 0.0
2018-May-10 20:24N 10°41' W 061°38'0 0.0
2018-May-10 19:57N 10°41' W 061°38'0 0.0
2018-May-10 19:24N 10°41' W 061°38'0 0.0
2018-May-10 18:54N 10°41' W 061°38'0 0.0
2018-May-10 18:06N 10°41' W 061°38'0 0.1
2018-May-10 18:00N 10°41' W 061°38'0 0.0
2018-May-10 17:30N 10°41' W 061°38'0 0.0
2018-May-10 16:57N 10°41' W 061°38'0 0.0
2018-May-10 16:24N 10°41' W 061°38'0 0.0
2018-May-10 15:27N 10°41' W 061°38'0 0.0
2018-May-10 15:00N 10°41' W 061°38'0 0.0
2018-May-10 14:30N 10°41' W 061°38'0 0.0
2018-May-10 13:54N 10°41' W 061°38'0 0.0
2018-May-10 13:30N 10°41' W 061°38'0 0.0
2018-May-10 13:00N 10°41' W 061°38'0 0.1
2018-May-10 12:30N 10°41' W 061°38'1 2.3
2018-May-10 12:00N 10°40' W 061°38'1 1.3
2018-May-10 11:29N 10°39' W 061°38'0 0.0
2018-May-10 10:59N 10°39' W 061°38'0 0.0
2018-May-10 10:29N 10°39' W 061°38'0 0.0
2018-May-10 09:59N 10°39' W 061°38'0 0.0
2018-May-10 09:29N 10°39' W 061°38'0 0.0
2018-May-10 08:59N 10°39' W 061°38'0 0.0
2018-May-10 08:29N 10°39' W 061°38'0 0.0
2018-May-10 07:59N 10°39' W 061°38'0 0.0
2018-May-10 07:29N 10°39' W 061°38'0 0.0
2018-May-10 06:59N 10°39' W 061°38'0 0.0
2018-May-10 06:29N 10°39' W 061°38'0 0.0
2018-May-10 05:59N 10°39' W 061°38'0 0.0
2018-May-10 05:29N 10°39' W 061°38'0 0.0
2018-May-10 04:59N 10°39' W 061°38'0 0.0
2018-May-10 04:29N 10°39' W 061°38'0 0.0
2018-May-10 03:59N 10°39' W 061°38'0 0.0
2018-May-10 03:29N 10°39' W 061°38'0 0.0
2018-May-10 02:59N 10°39' W 061°38'0 0.0
2018-May-10 02:29N 10°39' W 061°38'0 0.0
2018-May-10 01:59N 10°39' W 061°38'0 0.0
2018-May-10 01:29N 10°39' W 061°38'0 0.0
2018-May-10 00:59N 10°39' W 061°38'0 0.0
2018-May-10 00:29N 10°39' W 061°38'0 0.0
2018-May-10 00:00N 10°39' W 061°38'0 0.0
2018-May-09 23:30N 10°39' W 061°38'0 0.0
2018-May-09 23:00N 10°39' W 061°38'0 0.5
2018-May-09 22:30N 10°39' W 061°38'1 2.7
2018-May-09 22:00N 10°40' W 061°38'0 0.4
2018-May-09 21:30N 10°41' W 061°38'0 0.0
2018-May-09 21:00N 10°41' W 061°38'0 0.0
2018-May-09 20:30N 10°41' W 061°38'0 0.0
2018-May-09 20:00N 10°41' W 061°38'0 0.0
2018-May-09 19:30N 10°41' W 061°38'0 0.0
2018-May-09 19:00N 10°41' W 061°38'0 0.0
2018-May-09 18:30N 10°41' W 061°38'0 0.0
2018-May-09 18:00N 10°41' W 061°38'0 0.0
2018-May-09 17:30N 10°41' W 061°38'0 0.0
2018-May-09 17:00N 10°41' W 061°38'0 0.0
2018-May-09 16:30N 10°41' W 061°38'0 0.0
2018-May-09 16:00N 10°41' W 061°38'0 0.0
2018-May-09 15:30N 10°41' W 061°38'0 0.0
2018-May-09 15:00N 10°41' W 061°38'0 0.0
2018-May-09 14:30N 10°41' W 061°38'0 0.0
2018-May-09 14:00N 10°41' W 061°38'0 0.0
2018-May-09 13:30N 10°41' W 061°38'0 0.0
2018-May-09 13:00N 10°41' W 061°38'0 0.0
2018-May-09 12:30N 10°41' W 061°38'0 0.0
2018-May-09 12:00N 10°41' W 061°38'0 0.0
2018-May-09 11:30N 10°41' W 061°38'0 0.3
2018-May-09 11:00N 10°41' W 061°38'1 2.8
2018-May-09 10:30N 10°39' W 061°38'0 0.0
2018-May-09 10:00N 10°39' W 061°38'0 0.0
2018-May-09 09:30N 10°39' W 061°38'0 0.0
2018-May-09 09:00N 10°39' W 061°38'0 0.0
2018-May-09 08:30N 10°39' W 061°38'0 0.0
2018-May-09 08:00N 10°39' W 061°38'0 0.0
2018-May-09 07:30N 10°39' W 061°38'1 2.5
2018-May-09 07:00N 10°39' W 061°39'4 6.7
2018-May-09 06:28N 10°41' W 061°42'9 9.2
2018-May-09 05:29N 10°47' W 061°35'14 9.6
2018-May-09 04:00N 10°52' W 061°22'  

Dump ship's entire track history